sensor_id;sensor_type;location;lat;lon;timestamp;pressure;altitude;pressure_sealevel;temperature
15709;BMP180;7954;51.914;8.420;2023-08-31T00:02:23;99512.16;;;18.80
15709;BMP180;7954;51.914;8.420;2023-08-31T00:04:52;99511.41;;;18.81
15709;BMP180;7954;51.914;8.420;2023-08-31T00:07:21;99503.19;;;18.77
15709;BMP180;7954;51.914;8.420;2023-08-31T00:09:49;99497.53;;;18.86
15709;BMP180;7954;51.914;8.420;2023-08-31T00:12:17;99501.00;;;18.87
15709;BMP180;7954;51.914;8.420;2023-08-31T00:14:45;99503.00;;;18.89
15709;BMP180;7954;51.914;8.420;2023-08-31T00:17:16;99500.09;;;18.86
15709;BMP180;7954;51.914;8.420;2023-08-31T00:19:44;99497.16;;;18.90
15709;BMP180;7954;51.914;8.420;2023-08-31T00:22:12;99499.16;;;18.93
15709;BMP180;7954;51.914;8.420;2023-08-31T00:24:40;99499.38;;;18.87
15709;BMP180;7954;51.914;8.420;2023-08-31T00:27:09;99496.97;;;18.82
15709;BMP180;7954;51.914;8.420;2023-08-31T00:29:40;99508.13;;;18.82
15709;BMP180;7954;51.914;8.420;2023-08-31T00:32:10;99507.41;;;18.69
15709;BMP180;7954;51.914;8.420;2023-08-31T00:34:41;99522.75;;;18.69
15709;BMP180;7954;51.914;8.420;2023-08-31T00:37:10;99512.91;;;18.72
15709;BMP180;7954;51.914;8.420;2023-08-31T00:39:38;99515.28;;;18.64
15709;BMP180;7954;51.914;8.420;2023-08-31T00:42:07;99511.78;;;18.57
15709;BMP180;7954;51.914;8.420;2023-08-31T00:44:35;99512.31;;;18.47
15709;BMP180;7954;51.914;8.420;2023-08-31T00:47:04;99506.31;;;18.47
15709;BMP180;7954;51.914;8.420;2023-08-31T00:49:32;99505.22;;;18.52
15709;BMP180;7954;51.914;8.420;2023-08-31T00:52:04;99521.47;;;18.52
15709;BMP180;7954;51.914;8.420;2023-08-31T00:54:32;99508.84;;;18.54
15709;BMP180;7954;51.914;8.420;2023-08-31T00:57:00;99514.34;;;18.50
15709;BMP180;7954;51.914;8.420;2023-08-31T00:59:28;99506.50;;;18.55
15709;BMP180;7954;51.914;8.420;2023-08-31T01:02:01;99510.88;;;18.56
15709;BMP180;7954;51.914;8.420;2023-08-31T01:04:35;99515.25;;;18.57
15709;BMP180;7954;51.914;8.420;2023-08-31T01:07:16;99514.34;;;18.50
15709;BMP180;7954;51.914;8.420;2023-08-31T01:09:55;99516.53;;;18.54
15709;BMP180;7954;51.914;8.420;2023-08-31T01:12:30;99517.66;;;18.63
15709;BMP180;7954;51.914;8.420;2023-08-31T01:15:03;99513.59;;;18.65
15709;BMP180;7954;51.914;8.420;2023-08-31T01:17:39;99519.63;;;18.72
15709;BMP180;7954;51.914;8.420;2023-08-31T01:20:10;99510.13;;;18.57
15709;BMP180;7954;51.914;8.420;2023-08-31T01:22:43;99514.16;;;18.48
15709;BMP180;7954;51.914;8.420;2023-08-31T01:25:16;99511.97;;;18.51
15709;BMP180;7954;51.914;8.420;2023-08-31T01:27:44;99514.34;;;18.57
15709;BMP180;7954;51.914;8.420;2023-08-31T01:30:13;99510.69;;;18.55
15709;BMP180;7954;51.914;8.420;2023-08-31T01:32:43;99516.00;;;18.49
15709;BMP180;7954;51.914;8.420;2023-08-31T01:35:14;99518.72;;;18.51
15709;BMP180;7954;51.914;8.420;2023-08-31T01:37:46;99514.69;;;18.60
15709;BMP180;7954;51.914;8.420;2023-08-31T01:40:20;99511.78;;;18.64
15709;BMP180;7954;51.914;8.420;2023-08-31T01:42:51;99512.00;;;18.65
15709;BMP180;7954;51.914;8.420;2023-08-31T01:45:21;99511.41;;;18.61
15709;BMP180;7954;51.914;8.420;2023-08-31T01:47:50;99507.59;;;18.64
15709;BMP180;7954;51.914;8.420;2023-08-31T01:50:18;99507.94;;;18.67
15709;BMP180;7954;51.914;8.420;2023-08-31T01:52:46;99515.44;;;18.66
15709;BMP180;7954;51.914;8.420;2023-08-31T01:55:16;99517.44;;;18.61
15709;BMP180;7954;51.914;8.420;2023-08-31T01:57:45;99513.81;;;18.59
15709;BMP180;7954;51.914;8.420;2023-08-31T02:00:15;99510.53;;;18.60
15709;BMP180;7954;51.914;8.420;2023-08-31T02:02:44;99513.59;;;18.65
15709;BMP180;7954;51.914;8.420;2023-08-31T02:05:12;99506.31;;;18.61
15709;BMP180;7954;51.914;8.420;2023-08-31T02:07:40;99510.13;;;18.57
15709;BMP180;7954;51.914;8.420;2023-08-31T02:10:09;99512.88;;;18.52
15709;BMP180;7954;51.914;8.420;2023-08-31T02:12:40;99509.06;;;18.55
15709;BMP180;7954;51.914;8.420;2023-08-31T02:15:09;99503.19;;;18.56
15709;BMP180;7954;51.914;8.420;2023-08-31T02:17:38;99501.53;;;18.64
15709;BMP180;7954;51.914;8.420;2023-08-31T02:20:06;99506.50;;;18.55
15709;BMP180;7954;51.914;8.420;2023-08-31T02:22:35;99496.09;;;18.68
15709;BMP180;7954;51.914;8.420;2023-08-31T02:25:03;99500.28;;;18.67
15709;BMP180;7954;51.914;8.420;2023-08-31T02:27:32;99501.19;;;18.74
15709;BMP180;7954;51.914;8.420;2023-08-31T02:30:01;99495.34;;;18.82
15709;BMP180;7954;51.914;8.420;2023-08-31T02:32:31;99498.63;;;18.81
15709;BMP180;7954;51.914;8.420;2023-08-31T02:34:59;99495.69;;;18.85
15709;BMP180;7954;51.914;8.420;2023-08-31T02:37:28;99500.47;;;18.82
15709;BMP180;7954;51.914;8.420;2023-08-31T02:39:57;99518.38;;;18.82
15709;BMP180;7954;51.914;8.420;2023-08-31T02:42:25;99519.84;;;18.87
15709;BMP180;7954;51.914;8.420;2023-08-31T02:44:53;99512.72;;;18.85
15709;BMP180;7954;51.914;8.420;2023-08-31T02:47:23;99508.66;;;18.87
15709;BMP180;7954;51.914;8.420;2023-08-31T02:49:51;99513.41;;;18.91
15709;BMP180;7954;51.914;8.420;2023-08-31T02:52:19;99515.97;;;18.91
15709;BMP180;7954;51.914;8.420;2023-08-31T02:54:47;99518.72;;;18.85
15709;BMP180;7954;51.914;8.420;2023-08-31T02:57:16;99518.38;;;18.82
15709;BMP180;7954;51.914;8.420;2023-08-31T02:59:49;99515.06;;;18.76
15709;BMP180;7954;51.914;8.420;2023-08-31T03:02:17;99515.63;;;18.74
15709;BMP180;7954;51.914;8.420;2023-08-31T03:04:46;99514.53;;;18.72
15709;BMP180;7954;51.914;8.420;2023-08-31T03:07:14;99512.16;;;18.67
15709;BMP180;7954;51.914;8.420;2023-08-31T03:09:42;99511.78;;;18.64
15709;BMP180;7954;51.914;8.420;2023-08-31T03:12:10;99512.53;;;18.56
15709;BMP180;7954;51.914;8.420;2023-08-31T03:14:38;99511.63;;;18.55
15709;BMP180;7954;51.914;8.420;2023-08-31T03:17:08;99507.75;;;18.45
15709;BMP180;7954;51.914;8.420;2023-08-31T03:19:35;99511.25;;;18.45
15709;BMP180;7954;51.914;8.420;2023-08-31T03:22:05;99509.41;;;18.37
15709;BMP180;7954;51.914;8.420;2023-08-31T03:24:33;99508.66;;;18.31
15709;BMP180;7954;51.914;8.420;2023-08-31T03:27:01;99511.75;;;18.22
15709;BMP180;7954;51.914;8.420;2023-08-31T03:29:29;99516.88;;;18.22
15709;BMP180;7954;51.914;8.420;2023-08-31T03:31:59;99514.25;;;18.15
15709;BMP180;7954;51.914;8.420;2023-08-31T03:34:28;99523.03;;;18.17
15709;BMP180;7954;51.914;8.420;2023-08-31T03:36:57;99523.03;;;18.17
15709;BMP180;7954;51.914;8.420;2023-08-31T03:39:28;99513.53;;;18.16
15709;BMP180;7954;51.914;8.420;2023-08-31T03:41:56;99521.38;;;18.17
15709;BMP180;7954;51.914;8.420;2023-08-31T03:44:23;99522.47;;;18.12
15709;BMP180;7954;51.914;8.420;2023-08-31T03:46:51;99528.13;;;18.10
15709;BMP180;7954;51.914;8.420;2023-08-31T03:49:19;99523.56;;;18.14
15709;BMP180;7954;51.914;8.420;2023-08-31T03:51:48;99534.50;;;18.06
15709;BMP180;7954;51.914;8.420;2023-08-31T03:54:16;99541.06;;;18.04
15709;BMP180;7954;51.914;8.420;2023-08-31T03:56:46;99541.75;;;17.97
15709;BMP180;7954;51.914;8.420;2023-08-31T03:59:14;99544.84;;;17.94
15709;BMP180;7954;51.914;8.420;2023-08-31T04:01:42;99538.66;;;17.92
15709;BMP180;7954;51.914;8.420;2023-08-31T04:04:10;99549.97;;;17.94
15709;BMP180;7954;51.914;8.420;2023-08-31T04:06:39;99558.03;;;17.97
15709;BMP180;7954;51.914;8.420;2023-08-31T04:09:07;99562.06;;;18.02
15709;BMP180;7954;51.914;8.420;2023-08-31T04:11:35;99556.94;;;18.02
15709;BMP180;7954;51.914;8.420;2023-08-31T04:14:08;99561.34;;;18.03
15709;BMP180;7954;51.914;8.420;2023-08-31T04:16:36;99561.47;;;17.98
15709;BMP180;7954;51.914;8.420;2023-08-31T04:19:04;99577.91;;;18.00
15709;BMP180;7954;51.914;8.420;2023-08-31T04:21:32;99573.31;;;17.90
15709;BMP180;7954;51.914;8.420;2023-08-31T04:24:00;99582.44;;;17.88
15709;BMP180;7954;51.914;8.420;2023-08-31T04:26:30;99578.59;;;17.92
15709;BMP180;7954;51.914;8.420;2023-08-31T04:28:58;99583.53;;;17.90
15709;BMP180;7954;51.914;8.420;2023-08-31T04:31:27;99582.81;;;17.91
15709;BMP180;7954;51.914;8.420;2023-08-31T04:33:55;99584.09;;;17.95
15709;BMP180;7954;51.914;8.420;2023-08-31T04:36:23;99583.16;;;17.94
15709;BMP180;7954;51.914;8.420;2023-08-31T04:38:52;99590.09;;;17.95
15709;BMP180;7954;51.914;8.420;2023-08-31T04:41:20;99581.00;;;17.97
15709;BMP180;7954;51.914;8.420;2023-08-31T04:43:48;99578.28;;;18.02
15709;BMP180;7954;51.914;8.420;2023-08-31T04:46:16;99573.38;;;18.11
15709;BMP180;7954;51.914;8.420;2023-08-31T04:48:46;99577.06;;;18.13
15709;BMP180;7954;51.914;8.420;2023-08-31T04:51:35;99575.59;;;18.15
15709;BMP180;7954;51.914;8.420;2023-08-31T04:54:06;99571.59;;;18.17
15709;BMP180;7954;51.914;8.420;2023-08-31T04:56:34;99577.78;;;18.12
15709;BMP180;7954;51.914;8.420;2023-08-31T04:59:02;99581.81;;;18.17
15709;BMP180;7954;51.914;8.420;2023-08-31T05:01:30;99583.56;;;18.04
15709;BMP180;7954;51.914;8.420;2023-08-31T05:04:00;99582.84;;;18.05
15709;BMP180;7954;51.914;8.420;2023-08-31T05:06:28;99587.97;;;18.05
15709;BMP180;7954;51.914;8.420;2023-08-31T05:08:57;99591.09;;;18.09
15709;BMP180;7954;51.914;8.420;2023-08-31T05:11:26;99601.44;;;18.04
15709;BMP180;7954;51.914;8.420;2023-08-31T05:13:54;99593.47;;;18.08
15709;BMP180;7954;51.914;8.420;2023-08-31T05:16:21;99607.72;;;18.13
15709;BMP180;7954;51.914;8.420;2023-08-31T05:18:50;99599.56;;;18.22
15709;BMP180;7954;51.914;8.420;2023-08-31T05:21:21;99605.06;;;18.25
15709;BMP180;7954;51.914;8.420;2023-08-31T05:23:49;99605.09;;;18.39
15709;BMP180;7954;51.914;8.420;2023-08-31T05:26:17;99618.09;;;18.68
15709;BMP180;7954;51.914;8.420;2023-08-31T05:28:45;99621.06;;;19.06
15709;BMP180;7954;51.914;8.420;2023-08-31T05:31:13;99605.16;;;19.43
15709;BMP180;7954;51.914;8.420;2023-08-31T05:33:41;99607.13;;;19.60
15709;BMP180;7954;51.914;8.420;2023-08-31T05:36:09;99609.63;;;19.81
15709;BMP180;7954;51.914;8.420;2023-08-31T05:38:39;99601.59;;;19.92
15709;BMP180;7954;51.914;8.420;2023-08-31T05:41:08;99599.53;;;19.96
15709;BMP180;7954;51.914;8.420;2023-08-31T05:43:36;99602.66;;;19.94
15709;BMP180;7954;51.914;8.420;2023-08-31T05:46:07;99596.66;;;19.79
15709;BMP180;7954;51.914;8.420;2023-08-31T05:48:35;99599.78;;;19.77
15709;BMP180;7954;51.914;8.420;2023-08-31T05:51:04;99601.97;;;19.74
15709;BMP180;7954;51.914;8.420;2023-08-31T05:53:32;99609.34;;;19.50
15709;BMP180;7954;51.914;8.420;2023-08-31T05:56:03;99605.31;;;19.45
15709;BMP180;7954;51.914;8.420;2023-08-31T05:58:32;99606.81;;;19.36
15709;BMP180;7954;51.914;8.420;2023-08-31T06:01:00;99609.53;;;19.31
15709;BMP180;7954;51.914;8.420;2023-08-31T06:03:29;99613.41;;;19.13
15709;BMP180;7954;51.914;8.420;2023-08-31T06:05:58;99603.16;;;19.06
15709;BMP180;7954;51.914;8.420;2023-08-31T06:08:29;99610.44;;;18.89
15709;BMP180;7954;51.914;8.420;2023-08-31T06:10:57;99621.03;;;18.85
15709;BMP180;7954;51.914;8.420;2023-08-31T06:13:26;99628.53;;;18.91
15709;BMP180;7954;51.914;8.420;2023-08-31T06:15:56;99631.09;;;18.84
15709;BMP180;7954;51.914;8.420;2023-08-31T06:18:24;99633.84;;;18.85
15709;BMP180;7954;51.914;8.420;2023-08-31T06:20:52;99630.00;;;18.89
15709;BMP180;7954;51.914;8.420;2023-08-31T06:23:20;99634.59;;;19.05
15709;BMP180;7954;51.914;8.420;2023-08-31T06:25:48;99638.09;;;19.13
15709;BMP180;7954;51.914;8.420;2023-08-31T06:28:16;99641.00;;;19.23
15709;BMP180;7954;51.914;8.420;2023-08-31T06:30:45;99641.19;;;19.45
15709;BMP180;7954;51.914;8.420;2023-08-31T06:33:14;99625.06;;;19.53
15709;BMP180;7954;51.914;8.420;2023-08-31T06:35:43;99630.34;;;19.61
15709;BMP180;7954;51.914;8.420;2023-08-31T06:38:11;99635.31;;;19.67
15709;BMP180;7954;51.914;8.420;2023-08-31T06:40:41;99643.13;;;19.89
15709;BMP180;7954;51.914;8.420;2023-08-31T06:43:10;99638.34;;;19.85
15709;BMP180;7954;51.914;8.420;2023-08-31T06:45:38;99633.25;;;19.71
15709;BMP180;7954;51.914;8.420;2023-08-31T06:48:08;99630.53;;;19.63
15709;BMP180;7954;51.914;8.420;2023-08-31T06:50:36;99640.44;;;19.67
15709;BMP180;7954;51.914;8.420;2023-08-31T06:53:05;99633.41;;;19.87
15709;BMP180;7954;51.914;8.420;2023-08-31T06:55:33;99638.91;;;19.97
15709;BMP180;7954;51.914;8.420;2023-08-31T06:58:01;99633.72;;;20.10
15709;BMP180;7954;51.914;8.420;2023-08-31T07:00:31;99633.72;;;20.10
15709;BMP180;7954;51.914;8.420;2023-08-31T07:02:59;99639.38;;;20.15
15709;BMP180;7954;51.914;8.420;2023-08-31T07:05:33;99638.53;;;20.44
15709;BMP180;7954;51.914;8.420;2023-08-31T07:08:02;99640.91;;;20.42
15709;BMP180;7954;51.914;8.420;2023-08-31T07:10:30;99630.91;;;20.59
15709;BMP180;7954;51.914;8.420;2023-08-31T07:12:58;99631.03;;;20.67
15709;BMP180;7954;51.914;8.420;2023-08-31T07:15:26;99632.53;;;20.95
15709;BMP180;7954;51.914;8.420;2023-08-31T07:17:57;99629.53;;;21.06
15709;BMP180;7954;51.914;8.420;2023-08-31T07:20:25;99647.25;;;20.89
15709;BMP180;7954;51.914;8.420;2023-08-31T07:22:55;99644.09;;;20.91
15709;BMP180;7954;51.914;8.420;2023-08-31T07:25:23;99637.63;;;21.02
15709;BMP180;7954;51.914;8.420;2023-08-31T07:27:52;99640.50;;;21.12
15709;BMP180;7954;51.914;8.420;2023-08-31T07:30:20;99640.13;;;21.31
15709;BMP180;7954;51.914;8.420;2023-08-31T07:32:48;99642.38;;;21.06
15709;BMP180;7954;51.914;8.420;2023-08-31T07:35:16;99636.97;;;21.33
15709;BMP180;7954;51.914;8.420;2023-08-31T07:37:45;99640.06;;;21.38
15709;BMP180;7954;51.914;8.420;2023-08-31T07:40:14;99641.25;;;21.48
15709;BMP180;7954;51.914;8.420;2023-08-31T07:42:43;99640.91;;;21.45
15709;BMP180;7954;51.914;8.420;2023-08-31T07:45:12;99642.78;;;21.62
15709;BMP180;7954;51.914;8.420;2023-08-31T07:47:40;99651.59;;;21.64
15709;BMP180;7954;51.914;8.420;2023-08-31T07:50:09;99652.50;;;21.64
15709;BMP180;7954;51.914;8.420;2023-08-31T07:52:38;99655.19;;;21.50
15709;BMP180;7954;51.914;8.420;2023-08-31T07:55:06;99658.91;;;21.23
15709;BMP180;7954;51.914;8.420;2023-08-31T07:57:36;99665.09;;;21.03
15709;BMP180;7954;51.914;8.420;2023-08-31T08:00:06;99661.75;;;20.88
15709;BMP180;7954;51.914;8.420;2023-08-31T08:02:35;99665.31;;;20.75
15709;BMP180;7954;51.914;8.420;2023-08-31T08:05:04;99674.22;;;20.85
15709;BMP180;7954;51.914;8.420;2023-08-31T08:07:32;99672.66;;;20.65
15709;BMP180;7954;51.914;8.420;2023-08-31T08:10:01;99670.25;;;20.66
15709;BMP180;7954;51.914;8.420;2023-08-31T08:12:40;99675.47;;;20.89
15709;BMP180;7954;51.914;8.420;2023-08-31T08:15:12;99671.66;;;21.08
15709;BMP180;7954;51.914;8.420;2023-08-31T08:17:40;99669.78;;;21.14
15709;BMP180;7954;51.914;8.420;2023-08-31T08:20:09;99668.47;;;21.39
15709;BMP180;7954;51.914;8.420;2023-08-31T08:22:37;99679.22;;;21.29
15709;BMP180;7954;51.914;8.420;2023-08-31T08:25:07;99681.91;;;21.15
15709;BMP180;7954;51.914;8.420;2023-08-31T08:27:36;99682.47;;;21.34
15709;BMP180;7954;51.914;8.420;2023-08-31T08:30:07;99671.44;;;21.80
15709;BMP180;7954;51.914;8.420;2023-08-31T08:32:35;99682.47;;;21.95
15709;BMP180;7954;51.914;8.420;2023-08-31T08:35:05;99681.16;;;21.98
15709;BMP180;7954;51.914;8.420;2023-08-31T08:37:33;99681.34;;;22.15
15709;BMP180;7954;51.914;8.420;2023-08-31T08:40:02;99680.72;;;22.02
15709;BMP180;7954;51.914;8.420;2023-08-31T08:42:31;99692.28;;;21.90
15709;BMP180;7954;51.914;8.420;2023-08-31T08:45:01;99688.59;;;21.88
15709;BMP180;7954;51.914;8.420;2023-08-31T08:47:32;99692.00;;;21.96
15709;BMP180;7954;51.914;8.420;2023-08-31T08:50:02;99694.81;;;22.28
15709;BMP180;7954;51.914;8.420;2023-08-31T08:52:30;99688.47;;;22.17
15709;BMP180;7954;51.914;8.420;2023-08-31T08:54:58;99688.66;;;22.34
15709;BMP180;7954;51.914;8.420;2023-08-31T08:57:28;99689.56;;;22.65
15709;BMP180;7954;51.914;8.420;2023-08-31T08:59:57;99691.81;;;22.47
15709;BMP180;7954;51.914;8.420;2023-08-31T09:02:25;99675.91;;;22.66
15709;BMP180;7954;51.914;8.420;2023-08-31T09:04:55;99682.97;;;22.76
15709;BMP180;7954;51.914;8.420;2023-08-31T09:07:23;99708.88;;;22.77
15709;BMP180;7954;51.914;8.420;2023-08-31T09:09:52;99685.63;;;22.69
15709;BMP180;7954;51.914;8.420;2023-08-31T09:12:22;99682.81;;;22.74
15709;BMP180;7954;51.914;8.420;2023-08-31T09:15:00;99684.91;;;22.55
15709;BMP180;7954;51.914;8.420;2023-08-31T09:17:38;99678.69;;;22.53
15709;BMP180;7954;51.914;8.420;2023-08-31T09:20:08;99669.88;;;22.66
15709;BMP180;7954;51.914;8.420;2023-08-31T09:22:42;99677.44;;;22.64
15709;BMP180;7954;51.914;8.420;2023-08-31T09:25:10;99674.81;;;22.80
15709;BMP180;7954;51.914;8.420;2023-08-31T09:27:38;99668.53;;;22.69
15709;BMP180;7954;51.914;8.420;2023-08-31T09:30:07;99686.94;;;22.81
15709;BMP180;7954;51.914;8.420;2023-08-31T09:32:36;99675.78;;;23.04
15709;BMP180;7954;51.914;8.420;2023-08-31T09:35:10;99695.25;;;23.18
15709;BMP180;7954;51.914;8.420;2023-08-31T09:37:55;99680.81;;;23.35
15709;BMP180;7954;51.914;8.420;2023-08-31T09:40:24;99668.38;;;23.72
15709;BMP180;7954;51.914;8.420;2023-08-31T09:42:52;99680.25;;;23.46
15709;BMP180;7954;51.914;8.420;2023-08-31T09:45:26;99692.38;;;23.47
15709;BMP180;7954;51.914;8.420;2023-08-31T09:48:10;99676.16;;;23.80
15709;BMP180;7954;51.914;8.420;2023-08-31T09:50:43;99666.00;;;23.82
15709;BMP180;7954;51.914;8.420;2023-08-31T09:53:11;99682.75;;;23.61
15709;BMP180;7954;51.914;8.420;2023-08-31T09:55:40;99670.69;;;23.45
15709;BMP180;7954;51.914;8.420;2023-08-31T09:58:08;99689.06;;;23.24
15709;BMP180;7954;51.914;8.420;2023-08-31T10:00:40;99666.59;;;23.47
15709;BMP180;7954;51.914;8.420;2023-08-31T10:03:07;99668.66;;;23.34
15709;BMP180;7954;51.914;8.420;2023-08-31T10:05:40;99675.53;;;23.18
15709;BMP180;7954;51.914;8.420;2023-08-31T10:08:08;99682.75;;;23.29
15709;BMP180;7954;51.914;8.420;2023-08-31T10:10:37;99688.97;;;23.07
15709;BMP180;7954;51.914;8.420;2023-08-31T10:13:05;99682.94;;;22.91
15709;BMP180;7954;51.914;8.420;2023-08-31T10:15:35;99696.03;;;22.62
15709;BMP180;7954;51.914;8.420;2023-08-31T10:18:05;99688.19;;;22.84
15709;BMP180;7954;51.914;8.420;2023-08-31T10:20:34;99693.38;;;23.08
15709;BMP180;7954;51.914;8.420;2023-08-31T10:23:05;99684.97;;;23.18
15709;BMP180;7954;51.914;8.420;2023-08-31T10:26:04;99692.41;;;23.23
15709;BMP180;7954;51.914;8.420;2023-08-31T10:28:40;99693.28;;;23.47
15709;BMP180;7954;51.914;8.420;2023-08-31T10:31:09;99698.59;;;23.73
15709;BMP180;7954;51.914;8.420;2023-08-31T10:33:41;99672.72;;;23.56
15709;BMP180;7954;51.914;8.420;2023-08-31T10:36:11;99687.63;;;24.07
15709;BMP180;7954;51.914;8.420;2023-08-31T10:38:42;99675.34;;;24.22
15709;BMP180;7954;51.914;8.420;2023-08-31T10:41:20;99673.81;;;24.24
15709;BMP180;7954;51.914;8.420;2023-08-31T10:43:50;99667.75;;;24.23
15709;BMP180;7954;51.914;8.420;2023-08-31T10:46:27;99665.88;;;23.89
15709;BMP180;7954;51.914;8.420;2023-08-31T10:48:57;99681.91;;;23.45
15709;BMP180;7954;51.914;8.420;2023-08-31T10:51:30;99682.56;;;23.84
15709;BMP180;7954;51.914;8.420;2023-08-31T10:54:12;99670.63;;;24.09
15709;BMP180;7954;51.914;8.420;2023-08-31T10:56:52;99681.06;;;23.86
15709;BMP180;7954;51.914;8.420;2023-08-31T10:59:21;99704.97;;;23.20
15709;BMP180;7954;51.914;8.420;2023-08-31T11:01:54;99695.28;;;22.63
15709;BMP180;7954;51.914;8.420;2023-08-31T11:04:25;99694.56;;;22.33
15709;BMP180;7954;51.914;8.420;2023-08-31T11:07:14;99696.94;;;22.63
15709;BMP180;7954;51.914;8.420;2023-08-31T11:09:46;99691.53;;;22.68
15709;BMP180;7954;51.914;8.420;2023-08-31T11:12:14;99692.06;;;22.57
15709;BMP180;7954;51.914;8.420;2023-08-31T11:14:43;99694.88;;;22.36
15709;BMP180;7954;51.914;8.420;2023-08-31T11:17:11;99685.69;;;22.77
15709;BMP180;7954;51.914;8.420;2023-08-31T11:19:39;99681.47;;;23.49
15709;BMP180;7954;51.914;8.420;2023-08-31T11:22:07;99669.34;;;23.89
15709;BMP180;7954;51.914;8.420;2023-08-31T11:24:37;99664.72;;;24.27
15709;BMP180;7954;51.914;8.420;2023-08-31T11:27:08;99669.47;;;24.48
15709;BMP180;7954;51.914;8.420;2023-08-31T11:29:37;99668.72;;;24.83
15709;BMP180;7954;51.914;8.420;2023-08-31T11:32:07;99663.19;;;25.22
15709;BMP180;7954;51.914;8.420;2023-08-31T11:34:35;99673.81;;;25.77
15709;BMP180;7954;51.914;8.420;2023-08-31T11:37:07;99651.34;;;25.59
15709;BMP180;7954;51.914;8.420;2023-08-31T11:39:37;99661.19;;;25.98
15709;BMP180;7954;51.914;8.420;2023-08-31T11:42:08;99655.59;;;25.94
15709;BMP180;7954;51.914;8.420;2023-08-31T11:44:36;99652.22;;;25.68
15709;BMP180;7954;51.914;8.420;2023-08-31T11:47:04;99661.09;;;25.53
15709;BMP180;7954;51.914;8.420;2023-08-31T11:49:33;99640.16;;;25.69
15709;BMP180;7954;51.914;8.420;2023-08-31T11:52:02;99650.38;;;25.67
15709;BMP180;7954;51.914;8.420;2023-08-31T11:54:30;99670.56;;;25.44
15709;BMP180;7954;51.914;8.420;2023-08-31T11:56:58;99656.44;;;25.76
15709;BMP180;7954;51.914;8.420;2023-08-31T11:59:28;99657.53;;;26.23
15709;BMP180;7954;51.914;8.420;2023-08-31T12:01:56;99648.97;;;26.69
15709;BMP180;7954;51.914;8.420;2023-08-31T12:04:25;99670.16;;;26.65
15709;BMP180;7954;51.914;8.420;2023-08-31T12:07:01;99666.41;;;26.62
15709;BMP180;7954;51.914;8.420;2023-08-31T12:09:30;99659.53;;;25.99
15709;BMP180;7954;51.914;8.420;2023-08-31T12:11:58;99665.50;;;25.63
15709;BMP180;7954;51.914;8.420;2023-08-31T12:14:31;99678.88;;;25.59
15709;BMP180;7954;51.914;8.420;2023-08-31T12:17:03;99684.47;;;25.03
15709;BMP180;7954;51.914;8.420;2023-08-31T12:19:32;99689.00;;;25.30
15709;BMP180;7954;51.914;8.420;2023-08-31T12:22:00;99687.84;;;25.62
15709;BMP180;7954;51.914;8.420;2023-08-31T12:24:28;99680.78;;;25.87
15709;BMP180;7954;51.914;8.420;2023-08-31T12:26:57;99683.41;;;25.26
15709;BMP180;7954;51.914;8.420;2023-08-31T12:29:24;99685.03;;;25.34
15709;BMP180;7954;51.914;8.420;2023-08-31T12:31:55;99674.78;;;25.52
15709;BMP180;7954;51.914;8.420;2023-08-31T12:34:24;99672.59;;;25.74
15709;BMP180;7954;51.914;8.420;2023-08-31T12:36:52;99661.22;;;25.63
15709;BMP180;7954;51.914;8.420;2023-08-31T12:39:20;99664.34;;;25.42
15709;BMP180;7954;51.914;8.420;2023-08-31T12:41:49;99677.28;;;25.34
15709;BMP180;7954;51.914;8.420;2023-08-31T12:44:17;99687.63;;;25.34
15709;BMP180;7954;51.914;8.420;2023-08-31T12:46:45;99689.34;;;25.25
15709;BMP180;7954;51.914;8.420;2023-08-31T12:49:15;99682.97;;;25.13
15709;BMP180;7954;51.914;8.420;2023-08-31T12:51:43;99675.00;;;25.45
15709;BMP180;7954;51.914;8.420;2023-08-31T12:54:11;99714.09;;;26.82
15709;BMP180;7954;51.914;8.420;2023-08-31T12:56:40;99663.19;;;29.28
15709;BMP180;7954;51.914;8.420;2023-08-31T12:59:08;99698.88;;;30.24
15709;BMP180;7954;51.914;8.420;2023-08-31T13:01:36;99633.16;;;30.72
15709;BMP180;7954;51.914;8.420;2023-08-31T13:04:04;99647.56;;;30.35
15709;BMP180;7954;51.914;8.420;2023-08-31T13:06:34;99629.28;;;30.12
15709;BMP180;7954;51.914;8.420;2023-08-31T13:09:03;99635.09;;;29.03
15709;BMP180;7954;51.914;8.420;2023-08-31T13:11:32;99670.97;;;27.68
15709;BMP180;7954;51.914;8.420;2023-08-31T13:14:00;99670.06;;;27.29
15709;BMP180;7954;51.914;8.420;2023-08-31T13:16:28;99664.47;;;27.06
15709;BMP180;7954;51.914;8.420;2023-08-31T13:18:56;99671.91;;;26.93
15709;BMP180;7954;51.914;8.420;2023-08-31T13:21:24;99673.63;;;26.38
15709;BMP180;7954;51.914;8.420;2023-08-31T13:23:54;99674.88;;;25.79
15709;BMP180;7954;51.914;8.420;2023-08-31T13:26:22;99689.19;;;25.67
15709;BMP180;7954;51.914;8.420;2023-08-31T13:28:50;99687.66;;;25.69
15709;BMP180;7954;51.914;8.420;2023-08-31T13:31:18;99682.44;;;25.86
15709;BMP180;7954;51.914;8.420;2023-08-31T13:33:46;99685.09;;;25.96
15709;BMP180;7954;51.914;8.420;2023-08-31T13:36:14;99690.59;;;25.99
15709;BMP180;7954;51.914;8.420;2023-08-31T13:38:42;99690.00;;;25.58
15709;BMP180;7954;51.914;8.420;2023-08-31T13:41:12;99699.03;;;25.44
15709;BMP180;7954;51.914;8.420;2023-08-31T13:43:40;99704.50;;;25.30
15709;BMP180;7954;51.914;8.420;2023-08-31T13:46:09;99753.19;;;24.50
15709;BMP180;7954;51.914;8.420;2023-08-31T13:48:38;99817.09;;;22.86
15709;BMP180;7954;51.914;8.420;2023-08-31T13:51:06;99814.38;;;21.35
15709;BMP180;7954;51.914;8.420;2023-08-31T13:53:34;99814.22;;;20.40
15709;BMP180;7954;51.914;8.420;2023-08-31T13:56:02;99803.28;;;20.00
15709;BMP180;7954;51.914;8.420;2023-08-31T13:58:32;99798.31;;;19.87
15709;BMP180;7954;51.914;8.420;2023-08-31T14:01:01;99802.53;;;20.07
15709;BMP180;7954;51.914;8.420;2023-08-31T14:03:30;99802.47;;;20.49
15709;BMP180;7954;51.914;8.420;2023-08-31T14:05:58;99801.63;;;20.85
15709;BMP180;7954;51.914;8.420;2023-08-31T14:08:26;99795.44;;;20.69
15709;BMP180;7954;51.914;8.420;2023-08-31T14:10:54;99797.34;;;20.49
15709;BMP180;7954;51.914;8.420;2023-08-31T14:13:22;99816.16;;;22.39
15709;BMP180;7954;51.914;8.420;2023-08-31T14:15:51;99783.38;;;22.30
15709;BMP180;7954;51.914;8.420;2023-08-31T14:18:20;99796.91;;;22.13
15709;BMP180;7954;51.914;8.420;2023-08-31T14:20:48;99800.53;;;22.38
15709;BMP180;7954;51.914;8.420;2023-08-31T14:23:16;99786.69;;;22.90
15709;BMP180;7954;51.914;8.420;2023-08-31T14:25:44;99789.88;;;22.57
15709;BMP180;7954;51.914;8.420;2023-08-31T14:28:12;99780.28;;;22.71
15709;BMP180;7954;51.914;8.420;2023-08-31T14:30:41;99775.25;;;23.58
15709;BMP180;7954;51.914;8.420;2023-08-31T14:33:10;99776.28;;;23.76
15709;BMP180;7954;51.914;8.420;2023-08-31T14:35:39;99764.34;;;23.61